createdAt,value
2022-10-03T00:00:03.255Z,0.00
2022-10-03T00:01:03.247Z,0.00
2022-10-03T00:02:03.277Z,0.00
2022-10-03T00:03:03.324Z,0.00
2022-10-03T00:04:03.235Z,0.00
2022-10-03T00:05:03.236Z,0.00
2022-10-03T00:06:03.235Z,0.00
2022-10-03T00:07:03.222Z,0.00
2022-10-03T00:08:03.218Z,0.00
2022-10-03T00:09:03.220Z,0.00
2022-10-03T00:10:03.220Z,0.00
2022-10-03T00:11:03.212Z,0.00
2022-10-03T00:12:03.211Z,0.00
2022-10-03T00:13:03.205Z,0.00
2022-10-03T00:14:03.214Z,0.00
2022-10-03T00:15:03.201Z,0.00
2022-10-03T00:16:03.242Z,0.00
2022-10-03T00:17:06.176Z,0.00
2022-10-03T00:18:03.198Z,0.00
2022-10-03T00:19:03.193Z,0.00
2022-10-03T00:20:03.173Z,0.00
2022-10-03T00:21:03.206Z,0.00
2022-10-03T00:22:03.181Z,0.00
2022-10-03T00:23:03.189Z,0.00
2022-10-03T00:24:03.165Z,0.00
2022-10-03T00:25:03.161Z,0.00
2022-10-03T00:26:03.154Z,0.00
2022-10-03T00:27:03.158Z,0.00
2022-10-03T00:28:03.192Z,0.00
2022-10-03T00:29:03.145Z,0.00
2022-10-03T00:30:09.684Z,0.00
2022-10-03T00:31:03.310Z,0.00
2022-10-03T00:32:04.114Z,0.00
2022-10-03T00:33:03.152Z,0.00
2022-10-03T00:34:03.128Z,0.00
2022-10-03T00:35:03.134Z,0.00
2022-10-03T00:36:03.123Z,0.00
2022-10-03T00:37:03.118Z,0.00
2022-10-03T00:38:03.120Z,0.00
2022-10-03T00:39:09.685Z,0.00
2022-10-03T00:40:03.111Z,0.00
2022-10-03T00:41:03.107Z,0.00
2022-10-03T00:42:03.100Z,0.00
2022-10-03T00:43:03.101Z,0.00
2022-10-03T00:44:03.098Z,0.00
2022-10-03T00:45:03.092Z,0.00
2022-10-03T00:46:03.159Z,0.00
2022-10-03T00:47:03.082Z,0.00
2022-10-03T00:48:03.080Z,0.00
2022-10-03T00:49:03.091Z,0.00
2022-10-03T00:50:03.079Z,0.00
2022-10-03T00:51:03.091Z,0.00
2022-10-03T00:52:03.068Z,0.00
2022-10-03T00:53:03.199Z,0.00
2022-10-03T00:54:03.058Z,0.00
2022-10-03T00:55:03.058Z,0.00
2022-10-03T00:56:03.051Z,0.00
2022-10-03T00:57:03.059Z,0.00
2022-10-03T00:58:03.045Z,0.00
2022-10-03T00:59:03.039Z,0.00
2022-10-03T01:00:03.042Z,0.00
2022-10-03T01:01:03.077Z,0.00
2022-10-03T01:02:03.070Z,0.00
2022-10-03T01:03:03.032Z,0.00
2022-10-03T01:04:03.031Z,0.00
2022-10-03T01:05:03.020Z,0.00
2022-10-03T01:06:03.022Z,0.00
2022-10-03T01:07:03.010Z,0.00
2022-10-03T01:08:03.007Z,0.00
2022-10-03T01:09:05.690Z,0.00
2022-10-03T01:10:03.003Z,0.00
2022-10-03T01:11:05.628Z,0.00
2022-10-03T01:12:02.991Z,0.00
2022-10-03T01:13:02.983Z,0.00
2022-10-03T01:14:02.992Z,0.00
2022-10-03T01:15:02.984Z,0.00
2022-10-03T01:16:04.218Z,0.00
2022-10-03T01:17:02.975Z,0.00
2022-10-03T01:18:02.985Z,0.00
2022-10-03T01:19:03.038Z,0.00
2022-10-03T01:20:02.977Z,0.00
2022-10-03T01:21:02.961Z,0.00
2022-10-03T01:22:02.960Z,0.00
2022-10-03T01:23:02.956Z,0.00
2022-10-03T01:24:02.967Z,0.00
2022-10-03T01:25:02.947Z,0.00
2022-10-03T01:26:02.944Z,0.00
2022-10-03T01:27:05.131Z,0.00
2022-10-03T01:28:02.976Z,0.00
2022-10-03T01:29:02.928Z,0.00
2022-10-03T01:30:02.931Z,0.00
2022-10-03T01:31:03.015Z,0.00
2022-10-03T01:32:02.922Z,0.00
2022-10-03T01:33:02.935Z,0.00
2022-10-03T01:34:03.632Z,0.00
2022-10-03T01:35:02.914Z,0.00
2022-10-03T01:36:02.904Z,0.00
2022-10-03T01:37:02.908Z,0.00
2022-10-03T01:38:02.905Z,0.00
2022-10-03T01:39:02.899Z,0.00
2022-10-03T01:40:02.896Z,0.00
2022-10-03T01:41:02.889Z,0.00
2022-10-03T01:42:02.884Z,0.00
2022-10-03T01:43:02.912Z,0.00
2022-10-03T01:44:03.011Z,0.00
2022-10-03T01:45:02.877Z,0.00
2022-10-03T01:46:02.876Z,0.00
2022-10-03T01:47:02.865Z,0.00
2022-10-03T01:48:02.863Z,0.00
2022-10-03T01:49:02.856Z,0.00
2022-10-03T01:50:02.857Z,0.00
2022-10-03T01:51:02.853Z,0.00
2022-10-03T01:52:03.637Z,0.00
2022-10-03T01:53:02.844Z,0.00
2022-10-03T01:54:02.845Z,0.00
2022-10-03T01:55:02.840Z,0.00
2022-10-03T01:56:02.836Z,0.00
2022-10-03T01:57:02.825Z,0.00
2022-10-03T01:58:02.824Z,0.00
2022-10-03T01:59:02.821Z,0.00
2022-10-03T02:00:02.820Z,0.00
2022-10-03T02:01:02.879Z,0.00
2022-10-03T02:02:02.828Z,0.00
2022-10-03T02:03:02.817Z,0.00
2022-10-03T02:04:02.805Z,0.00
2022-10-03T02:05:02.811Z,0.00
2022-10-03T02:06:04.140Z,0.00
2022-10-03T02:07:02.792Z,0.00
2022-10-03T02:08:02.887Z,0.00
2022-10-03T02:09:02.788Z,0.00
2022-10-03T02:10:04.150Z,0.00
2022-10-03T02:11:03.684Z,0.00
2022-10-03T02:12:02.773Z,0.00
2022-10-03T02:13:02.770Z,0.00
2022-10-03T02:14:02.769Z,0.00
2022-10-03T02:15:02.766Z,0.00
2022-10-03T02:16:03.685Z,0.00
2022-10-03T02:17:02.752Z,0.00
2022-10-03T02:18:02.754Z,0.00
2022-10-03T02:19:02.756Z,0.00
2022-10-03T02:20:02.754Z,0.00
2022-10-03T02:21:02.748Z,0.00
2022-10-03T02:22:02.732Z,0.00
2022-10-03T02:23:02.736Z,0.00
2022-10-03T02:24:02.746Z,0.00
2022-10-03T02:25:02.765Z,0.00
2022-10-03T02:26:02.729Z,0.00
2022-10-03T02:27:02.720Z,0.00
2022-10-03T02:28:04.195Z,0.00
2022-10-03T02:29:02.721Z,0.00
2022-10-03T02:30:03.647Z,0.00
2022-10-03T02:31:02.758Z,0.00
2022-10-03T02:32:02.777Z,0.00
2022-10-03T02:33:02.704Z,0.00
2022-10-03T02:34:02.699Z,0.00
2022-10-03T02:35:02.694Z,0.00
2022-10-03T02:36:02.696Z,0.00
2022-10-03T02:37:02.690Z,0.00
2022-10-03T02:38:02.677Z,0.00
2022-10-03T02:39:04.147Z,0.00
2022-10-03T02:40:02.681Z,0.00
2022-10-03T02:41:02.661Z,0.00
2022-10-03T02:42:23.670Z,0.00
2022-10-03T02:43:02.658Z,0.00
2022-10-03T02:44:02.653Z,0.00
2022-10-03T02:45:02.649Z,0.00
2022-10-03T02:46:02.683Z,0.00
2022-10-03T02:47:02.645Z,0.00
2022-10-03T02:48:27.000Z,0.00
2022-10-03T02:49:02.855Z,0.00
2022-10-03T02:50:02.636Z,0.00
2022-10-03T02:51:02.635Z,0.00
2022-10-03T02:52:09.873Z,0.00
2022-10-03T02:53:02.632Z,0.00
2022-10-03T02:54:02.620Z,0.00
2022-10-03T02:55:05.243Z,0.00
2022-10-03T02:56:03.108Z,0.00
2022-10-03T02:57:02.618Z,0.00
2022-10-03T02:58:02.611Z,0.00
2022-10-03T02:59:02.601Z,0.00
2022-10-03T03:00:02.595Z,0.00
2022-10-03T03:01:02.671Z,0.00
2022-10-03T03:02:02.644Z,0.00
2022-10-03T03:03:02.589Z,0.00
2022-10-03T03:04:02.583Z,0.00
2022-10-03T03:05:02.582Z,0.00
2022-10-03T03:06:02.578Z,0.00
2022-10-03T03:07:02.781Z,0.00
2022-10-03T03:08:02.586Z,0.00
2022-10-03T03:09:02.563Z,0.00
2022-10-03T03:10:02.559Z,0.00
2022-10-03T03:11:02.558Z,0.00
2022-10-03T03:12:02.551Z,0.00
2022-10-03T03:13:02.553Z,0.00
2022-10-03T03:14:03.157Z,0.00
2022-10-03T03:15:02.546Z,0.00
2022-10-03T03:16:02.559Z,0.00
2022-10-03T03:17:02.534Z,0.00
2022-10-03T03:18:02.542Z,0.00
2022-10-03T03:19:02.531Z,0.00
2022-10-03T03:20:02.533Z,0.00
2022-10-03T03:21:02.520Z,0.00
2022-10-03T03:22:02.526Z,0.00
2022-10-03T03:23:02.515Z,0.00
2022-10-03T03:24:02.639Z,0.00
2022-10-03T03:25:02.513Z,0.00
2022-10-03T03:26:26.250Z,0.00
2022-10-03T03:27:02.499Z,0.00
2022-10-03T03:28:02.567Z,0.00
2022-10-03T03:29:02.496Z,0.00
2022-10-03T03:30:02.646Z,0.00
2022-10-03T03:31:02.494Z,0.00
2022-10-03T03:32:02.515Z,0.00
2022-10-03T03:33:02.481Z,0.00
2022-10-03T03:34:02.473Z,0.00
2022-10-03T03:35:02.477Z,0.00
2022-10-03T03:36:02.466Z,0.00
2022-10-03T03:37:02.460Z,0.00
2022-10-03T03:38:05.158Z,0.00
2022-10-03T03:39:02.455Z,0.00
2022-10-03T03:40:02.464Z,0.00
2022-10-03T03:41:02.448Z,0.00
2022-10-03T03:42:02.444Z,0.00
2022-10-03T03:43:02.448Z,0.00
2022-10-03T03:44:02.443Z,0.00
2022-10-03T03:45:02.443Z,0.00
2022-10-03T03:46:02.552Z,0.00
2022-10-03T03:47:02.461Z,0.00
2022-10-03T03:48:02.477Z,0.00
2022-10-03T03:49:02.428Z,0.00
2022-10-03T03:50:02.414Z,0.00
2022-10-03T03:51:02.418Z,0.00
2022-10-03T03:52:02.404Z,0.00
2022-10-03T03:53:02.406Z,0.00
2022-10-03T03:54:02.399Z,0.00
2022-10-03T03:55:02.398Z,0.00
2022-10-03T03:56:02.398Z,0.00
2022-10-03T03:57:02.387Z,0.00
2022-10-03T03:58:02.391Z,0.00
2022-10-03T03:59:02.384Z,0.00
2022-10-03T04:00:02.383Z,0.00
2022-10-03T04:01:09.286Z,0.00
2022-10-03T04:02:03.208Z,0.00
2022-10-03T04:03:02.375Z,0.00
2022-10-03T04:04:02.369Z,0.00
2022-10-03T04:05:02.358Z,0.00
2022-10-03T04:06:02.363Z,0.00
2022-10-03T04:07:02.354Z,0.00
2022-10-03T04:08:02.350Z,0.00
2022-10-03T04:09:02.383Z,0.00
2022-10-03T04:10:02.532Z,0.00
2022-10-03T04:11:02.336Z,0.00
2022-10-03T04:12:02.345Z,0.00
2022-10-03T04:13:02.329Z,0.00
2022-10-03T04:14:02.330Z,0.00
2022-10-03T04:15:02.333Z,0.00
2022-10-03T04:16:02.315Z,0.00
2022-10-03T04:17:02.320Z,0.00
2022-10-03T04:18:02.323Z,0.00
2022-10-03T04:19:02.309Z,0.00
2022-10-03T04:20:02.322Z,0.00
2022-10-03T04:21:02.302Z,0.00
2022-10-03T04:22:02.298Z,0.00
2022-10-03T04:23:02.298Z,0.00
2022-10-03T04:24:02.286Z,0.00
2022-10-03T04:25:10.671Z,0.00
2022-10-03T04:26:02.277Z,0.00
2022-10-03T04:27:02.775Z,0.00
2022-10-03T04:28:02.349Z,0.00
2022-10-03T04:29:04.176Z,0.00
2022-10-03T04:30:02.414Z,0.00
2022-10-03T04:31:02.264Z,0.00
2022-10-03T04:32:03.261Z,0.00
2022-10-03T04:33:02.263Z,0.00
2022-10-03T04:34:02.258Z,0.00
2022-10-03T04:35:02.270Z,0.00
2022-10-03T04:36:02.244Z,0.00
2022-10-03T04:37:02.246Z,0.00
2022-10-03T04:38:02.239Z,0.00
2022-10-03T04:39:23.342Z,0.00
2022-10-03T04:40:02.232Z,0.00
2022-10-03T04:41:02.230Z,0.00
2022-10-03T04:42:02.222Z,0.00
2022-10-03T04:43:02.219Z,0.00
2022-10-03T04:44:23.225Z,0.00
2022-10-03T04:45:04.926Z,0.00
2022-10-03T04:46:02.323Z,0.00
2022-10-03T04:47:02.316Z,4.00
2022-10-03T04:48:02.207Z,0.00
2022-10-03T04:49:09.232Z,0.00
2022-10-03T04:50:02.203Z,0.00
2022-10-03T04:51:02.187Z,4.00
2022-10-03T04:52:02.188Z,4.00
2022-10-03T04:53:02.187Z,4.00
2022-10-03T04:54:02.180Z,8.00
2022-10-03T04:55:02.172Z,8.00
2022-10-03T04:56:03.683Z,8.00
2022-10-03T04:57:02.674Z,12.00
2022-10-03T04:58:05.163Z,12.00
2022-10-03T04:59:02.158Z,20.00
2022-10-03T05:00:03.173Z,16.00
2022-10-03T05:01:02.224Z,16.00
2022-10-03T05:02:02.216Z,20.00
2022-10-03T05:03:02.151Z,20.00
2022-10-03T05:04:04.173Z,20.00
2022-10-03T05:05:02.142Z,20.00
2022-10-03T05:06:02.160Z,20.00
2022-10-03T05:07:02.150Z,24.00
2022-10-03T05:08:02.125Z,28.00
2022-10-03T05:09:08.743Z,36.00
2022-10-03T05:10:05.991Z,32.00
2022-10-03T05:11:04.742Z,40.00
2022-10-03T05:12:02.110Z,40.00
2022-10-03T05:13:02.110Z,40.00
2022-10-03T05:14:02.111Z,40.00
2022-10-03T05:15:02.104Z,36.00
2022-10-03T05:16:03.270Z,44.00
2022-10-03T05:18:13.760Z,52.00
2022-10-03T05:19:13.733Z,52.00
2022-10-03T05:21:17.821Z,72.00
2022-10-03T05:22:17.698Z,68.00
2022-10-03T05:24:10.628Z,88.00
2022-10-03T05:25:10.614Z,88.00
2022-10-03T05:27:14.796Z,108.00
2022-10-03T05:28:14.672Z,132.00
2022-10-03T05:30:18.610Z,124.00
2022-10-03T05:31:18.674Z,104.00
2022-10-03T05:33:22.584Z,192.00
2022-10-03T05:34:22.575Z,156.00
2022-10-03T05:36:26.622Z,200.00
2022-10-03T05:37:26.611Z,172.00
2022-10-03T05:39:30.707Z,172.00
2022-10-03T05:40:31.994Z,224.00
2022-10-03T05:42:34.656Z,208.00
2022-10-03T05:43:34.651Z,248.00
2022-10-03T05:45:38.718Z,244.00
2022-10-03T05:46:38.630Z,424.00
2022-10-03T05:48:42.717Z,320.00
2022-10-03T05:49:42.719Z,504.00
2022-10-03T05:51:46.719Z,596.00
2022-10-03T05:52:46.694Z,848.00
2022-10-03T05:54:50.685Z,904.00
2022-10-03T05:55:50.685Z,920.00
2022-10-03T05:57:54.706Z,796.00
2022-10-03T05:58:54.692Z,1340.00
2022-10-03T06:00:58.659Z,648.00
2022-10-03T06:01:58.676Z,668.00
2022-10-03T06:03:51.575Z,432.00
2022-10-03T06:04:51.554Z,384.00
2022-10-03T06:06:56.008Z,324.00
2022-10-03T06:07:55.533Z,316.00
2022-10-03T06:09:59.536Z,448.00
2022-10-03T06:11:00.910Z,516.00
2022-10-03T06:13:03.545Z,1204.00
2022-10-03T06:14:03.473Z,1688.00
2022-10-03T06:16:07.530Z,3780.00
2022-10-03T06:17:07.449Z,3448.00
2022-10-03T06:19:11.465Z,3120.00
2022-10-03T06:20:12.330Z,2344.00
2022-10-03T06:22:15.503Z,3032.00
2022-10-03T06:23:15.419Z,3100.00
2022-10-03T06:25:19.493Z,1632.00
2022-10-03T06:26:19.494Z,2040.00
2022-10-03T06:28:24.422Z,2740.00
2022-10-03T06:29:24.366Z,2072.00
2022-10-03T06:31:31.913Z,1556.00
2022-10-03T06:32:27.455Z,1800.00
2022-10-03T06:34:31.470Z,1860.00
2022-10-03T06:35:31.478Z,1704.00
2022-10-03T06:37:35.413Z,1544.00
2022-10-03T06:38:35.408Z,1640.00
2022-10-03T06:40:40.791Z,1724.00
2022-10-03T06:41:39.682Z,1544.00
2022-10-03T06:43:32.298Z,2596.00
2022-10-03T06:44:32.301Z,1908.00
2022-10-03T06:46:36.756Z,1360.00
2022-10-03T06:47:36.269Z,1872.00
2022-10-03T06:49:40.243Z,2776.00
2022-10-03T06:50:40.240Z,2872.00
2022-10-03T06:52:44.423Z,2772.00
2022-10-03T06:53:44.222Z,2316.00
2022-10-03T06:55:48.207Z,1672.00
2022-10-03T06:56:50.057Z,1748.00
2022-10-03T06:58:52.228Z,1220.00
2022-10-03T06:59:52.156Z,1168.00
2022-10-03T07:02:00.235Z,3316.00
2022-10-03T07:04:25.020Z,4020.00
2022-10-03T07:05:24.618Z,5604.00
2022-10-03T07:07:30.139Z,7188.00
2022-10-03T07:08:28.579Z,6064.00
2022-10-03T07:10:33.049Z,7052.00
2022-10-03T07:11:34.993Z,8872.00
2022-10-03T07:13:24.985Z,7592.00
2022-10-03T07:14:24.991Z,4052.00
2022-10-03T07:16:29.065Z,3864.00
2022-10-03T07:17:28.961Z,4240.00
2022-10-03T07:19:32.957Z,4380.00
2022-10-03T07:20:33.848Z,2984.00
2022-10-03T07:22:36.982Z,9104.00
2022-10-03T07:23:36.952Z,8512.00
2022-10-03T07:25:41.824Z,7764.00
2022-10-03T07:26:40.918Z,2188.00
2022-10-03T07:28:44.909Z,1232.00
2022-10-03T07:29:46.796Z,1408.00
2022-10-03T07:31:48.903Z,1628.00
2022-10-03T07:32:48.888Z,1296.00
2022-10-03T07:34:52.891Z,3656.00
2022-10-03T07:35:52.865Z,4112.00
2022-10-03T07:37:56.992Z,27424.00
2022-10-03T07:38:56.878Z,23296.00
2022-10-03T07:41:00.907Z,10552.00
2022-10-03T07:42:01.752Z,21824.00
2022-10-03T07:43:54.008Z,6632.00
2022-10-03T07:44:55.271Z,20864.00
2022-10-03T07:46:57.795Z,17760.00
2022-10-03T07:47:57.810Z,13396.00
2022-10-03T07:50:01.822Z,7440.00
2022-10-03T07:51:01.799Z,4564.00
2022-10-03T07:53:05.810Z,3388.00
2022-10-03T07:54:05.791Z,3120.00
2022-10-03T07:56:09.981Z,3828.00
2022-10-03T07:57:09.828Z,3220.00
2022-10-03T07:59:13.802Z,1868.00
2022-10-03T08:00:13.785Z,1752.00
2022-10-03T08:02:17.829Z,1640.00
2022-10-03T08:03:17.829Z,1800.00
2022-10-03T08:05:21.805Z,1572.00
2022-10-03T08:06:21.820Z,1724.00
2022-10-03T08:08:25.825Z,1584.00
2022-10-03T08:09:25.767Z,1808.00
2022-10-03T08:11:29.782Z,1860.00
2022-10-03T08:12:29.808Z,2936.00
2022-10-03T08:14:33.774Z,2940.00
2022-10-03T08:15:33.846Z,2228.00
2022-10-03T08:17:37.739Z,1888.00
2022-10-03T08:18:37.727Z,2536.00
2022-10-03T08:20:41.745Z,2428.00
2022-10-03T08:21:42.114Z,3976.00
2022-10-03T08:23:34.649Z,5252.00
2022-10-03T08:24:34.802Z,5244.00
2022-10-03T08:26:38.623Z,9160.00
2022-10-03T08:27:38.598Z,6380.00
2022-10-03T08:29:42.596Z,6148.00
2022-10-03T08:30:42.659Z,6448.00
2022-10-03T08:31:43.219Z,6612.00
2022-10-03T08:32:47.813Z,5144.00
2022-10-03T08:33:42.564Z,3924.00
2022-10-03T08:34:42.573Z,3652.00
2022-10-03T08:35:42.558Z,3552.00
2022-10-03T08:36:42.571Z,3496.00
2022-10-03T08:37:42.561Z,3564.00
2022-10-03T08:38:42.559Z,2820.00
2022-10-03T08:39:42.542Z,2396.00
2022-10-03T08:40:42.552Z,2168.00
2022-10-03T08:41:42.874Z,2464.00
2022-10-03T08:42:42.547Z,2708.00
2022-10-03T08:43:42.548Z,3380.00
2022-10-03T08:44:42.534Z,5368.00
2022-10-03T08:45:42.596Z,5468.00
2022-10-03T08:46:42.712Z,4548.00
2022-10-03T08:47:42.545Z,8600.00
2022-10-03T08:48:42.540Z,6476.00
2022-10-03T08:49:42.526Z,5048.00
2022-10-03T08:50:42.526Z,3644.00
2022-10-03T08:51:42.740Z,4240.00
2022-10-03T08:52:42.528Z,4348.00
2022-10-03T08:53:42.523Z,5004.00
2022-10-03T08:54:42.516Z,5340.00
2022-10-03T08:55:42.535Z,5616.00
2022-10-03T08:56:42.508Z,8344.00
2022-10-03T08:57:42.505Z,7348.00
2022-10-03T08:58:42.499Z,8696.00
2022-10-03T08:59:42.500Z,5132.00
2022-10-03T09:00:42.496Z,4696.00
2022-10-03T09:01:43.378Z,5148.00
2022-10-03T09:02:42.516Z,4776.00
2022-10-03T09:03:43.483Z,3448.00
2022-10-03T09:04:42.495Z,2820.00
2022-10-03T09:05:42.493Z,2628.00
2022-10-03T09:07:05.185Z,4068.00
2022-10-03T09:07:42.489Z,4628.00
2022-10-03T09:08:42.502Z,3780.00
2022-10-03T09:09:42.493Z,3832.00
2022-10-03T09:10:42.517Z,4244.00
2022-10-03T09:11:42.481Z,3276.00
2022-10-03T09:12:42.478Z,2528.00
2022-10-03T09:13:42.524Z,2860.00
2022-10-03T09:14:42.471Z,2872.00
2022-10-03T09:15:42.504Z,3132.00
2022-10-03T09:16:43.060Z,3628.00
2022-10-03T09:17:42.480Z,4584.00
2022-10-03T09:18:42.489Z,4576.00
2022-10-03T09:19:42.455Z,4064.00
2022-10-03T09:20:42.468Z,3436.00
2022-10-03T09:21:42.459Z,2964.00
2022-10-03T09:22:42.472Z,2180.00
2022-10-03T09:23:42.463Z,1900.00
2022-10-03T09:24:42.558Z,2508.00
2022-10-03T09:25:42.447Z,3756.00
2022-10-03T09:26:42.759Z,4156.00
2022-10-03T09:27:42.446Z,4700.00
2022-10-03T09:28:42.502Z,4768.00
2022-10-03T09:29:42.439Z,5256.00
2022-10-03T09:30:42.451Z,5404.00
2022-10-03T09:31:43.017Z,5504.00
2022-10-03T09:32:42.441Z,6376.00
2022-10-03T09:33:42.430Z,6096.00
2022-10-03T09:34:42.432Z,6120.00
2022-10-03T09:35:42.430Z,4740.00
2022-10-03T09:36:42.436Z,4344.00
2022-10-03T09:37:42.422Z,4904.00
2022-10-03T09:38:42.428Z,5668.00
2022-10-03T09:39:42.425Z,5876.00
2022-10-03T09:40:42.419Z,5088.00
2022-10-03T09:41:42.810Z,4124.00
2022-10-03T09:42:42.421Z,3520.00
2022-10-03T09:43:42.437Z,4224.00
2022-10-03T09:44:42.441Z,3796.00
2022-10-03T09:45:42.411Z,3460.00
2022-10-03T09:46:46.280Z,3420.00
2022-10-03T09:47:42.409Z,3944.00
2022-10-03T09:48:42.397Z,5012.00
2022-10-03T09:49:42.407Z,5260.00
2022-10-03T09:50:42.407Z,5060.00
2022-10-03T09:51:42.851Z,3832.00
2022-10-03T09:52:42.408Z,2792.00
2022-10-03T09:53:42.408Z,2760.00
2022-10-03T09:54:42.386Z,4800.00
2022-10-03T09:55:42.401Z,4936.00
2022-10-03T09:56:42.737Z,5156.00
2022-10-03T09:57:42.386Z,7484.00
2022-10-03T09:58:42.386Z,5840.00
2022-10-03T09:59:42.385Z,4892.00
2022-10-03T10:00:42.422Z,4712.00
2022-10-03T10:01:42.379Z,4008.00
2022-10-03T10:02:42.397Z,3304.00
2022-10-03T10:03:42.414Z,2792.00
2022-10-03T10:04:56.412Z,2632.00
2022-10-03T10:05:42.404Z,2748.00
2022-10-03T10:06:42.678Z,2632.00
2022-10-03T10:07:42.369Z,2252.00
2022-10-03T10:08:42.364Z,1924.00
2022-10-03T10:09:42.365Z,1728.00
2022-10-03T10:10:42.360Z,1740.00
2022-10-03T10:11:42.356Z,1740.00
2022-10-03T10:12:42.379Z,1824.00
2022-10-03T10:14:06.194Z,1904.00
2022-10-03T10:14:42.354Z,2184.00
2022-10-03T10:15:42.374Z,2360.00
2022-10-03T10:16:45.862Z,2468.00
2022-10-03T10:17:42.377Z,2708.00
2022-10-03T10:18:42.368Z,3208.00
2022-10-03T10:19:42.354Z,3800.00
2022-10-03T10:20:42.403Z,4272.00
2022-10-03T10:21:42.394Z,4540.00
2022-10-03T10:22:45.115Z,4696.00
2022-10-03T10:23:42.327Z,4736.00
2022-10-03T10:24:42.354Z,5072.00
2022-10-03T10:25:42.334Z,5200.00
2022-10-03T10:26:42.688Z,5916.00
2022-10-03T10:27:42.344Z,5684.00
2022-10-03T10:28:42.332Z,4784.00
2022-10-03T10:29:42.347Z,3768.00
2022-10-03T10:30:42.339Z,3160.00
2022-10-03T10:31:42.451Z,2880.00
2022-10-03T10:32:42.317Z,2840.00
2022-10-03T10:33:42.333Z,2512.00
2022-10-03T10:34:42.329Z,3172.00
2022-10-03T10:35:42.317Z,3544.00
2022-10-03T10:36:42.670Z,3328.00
2022-10-03T10:37:46.148Z,3648.00
2022-10-03T10:38:42.309Z,3348.00
2022-10-03T10:39:42.300Z,3516.00
2022-10-03T10:40:42.318Z,4212.00
2022-10-03T10:41:42.572Z,4372.00
2022-10-03T10:42:42.314Z,4492.00
2022-10-03T10:43:42.288Z,4864.00
2022-10-03T10:44:42.801Z,3888.00
2022-10-03T10:45:42.315Z,3132.00
2022-10-03T10:46:42.629Z,3456.00
2022-10-03T10:47:42.363Z,3348.00
2022-10-03T10:48:46.521Z,3108.00
2022-10-03T10:49:42.296Z,3056.00
2022-10-03T10:50:42.296Z,3232.00
2022-10-03T10:51:42.286Z,3896.00
2022-10-03T10:52:42.301Z,3404.00
2022-10-03T10:53:42.277Z,3308.00
2022-10-03T10:54:42.278Z,3140.00
2022-10-03T10:55:46.085Z,3440.00
2022-10-03T10:56:42.751Z,3380.00
2022-10-03T10:57:42.300Z,3216.00
2022-10-03T10:58:42.274Z,3896.00
2022-10-03T10:59:42.266Z,3836.00
2022-10-03T11:00:42.345Z,4048.00
2022-10-03T11:01:45.809Z,4208.00
2022-10-03T11:02:42.283Z,3716.00
2022-10-03T11:03:42.330Z,3312.00
2022-10-03T11:04:42.289Z,3764.00
2022-10-03T11:05:42.259Z,4112.00
2022-10-03T11:06:42.645Z,4560.00
2022-10-03T11:07:42.253Z,4652.00
2022-10-03T11:08:42.248Z,4360.00
2022-10-03T11:09:42.256Z,3664.00
2022-10-03T11:10:42.259Z,4188.00
2022-10-03T11:11:42.258Z,4516.00
2022-10-03T11:12:42.268Z,3904.00
2022-10-03T11:13:42.259Z,4208.00
2022-10-03T11:14:42.296Z,4324.00
2022-10-03T11:15:42.250Z,4736.00
2022-10-03T11:16:42.814Z,4684.00
2022-10-03T11:17:42.261Z,4060.00
2022-10-03T11:18:42.238Z,3648.00
2022-10-03T11:19:42.591Z,3536.00
2022-10-03T11:20:42.236Z,3956.00
2022-10-03T11:21:42.235Z,4152.00
2022-10-03T11:22:42.326Z,4468.00
2022-10-03T11:23:42.232Z,4408.00
2022-10-03T11:24:42.231Z,4092.00
2022-10-03T11:25:42.232Z,4372.00
2022-10-03T11:26:42.698Z,4188.00
2022-10-03T11:27:42.225Z,4120.00
2022-10-03T11:28:42.309Z,3876.00
2022-10-03T11:29:42.231Z,3348.00
2022-10-03T11:30:42.211Z,3296.00
2022-10-03T11:31:42.247Z,3292.00
2022-10-03T11:32:42.271Z,2884.00
2022-10-03T11:33:42.218Z,2320.00
2022-10-03T11:34:42.210Z,2532.00
2022-10-03T11:35:43.210Z,3208.00
2022-10-03T11:36:42.635Z,3640.00
2022-10-03T11:37:42.223Z,3668.00
2022-10-03T11:38:42.230Z,3472.00
2022-10-03T11:39:42.200Z,3636.00
2022-10-03T11:40:42.202Z,3396.00
2022-10-03T11:41:42.205Z,3164.00
2022-10-03T11:42:42.203Z,3416.00
2022-10-03T11:43:42.197Z,3956.00
2022-10-03T11:44:42.219Z,3864.00
2022-10-03T11:45:42.216Z,3224.00
2022-10-03T11:46:42.515Z,3024.00
2022-10-03T11:47:42.211Z,3280.00
2022-10-03T11:48:42.199Z,3628.00
2022-10-03T11:49:42.198Z,3564.00
2022-10-03T11:50:42.195Z,3804.00
2022-10-03T11:51:42.188Z,4040.00
2022-10-03T11:52:42.251Z,4160.00
2022-10-03T11:53:42.189Z,4112.00
2022-10-03T11:54:42.186Z,4200.00
2022-10-03T11:55:42.174Z,4168.00
2022-10-03T11:56:42.597Z,3808.00
2022-10-03T11:57:42.179Z,3788.00
2022-10-03T11:58:42.166Z,3704.00
2022-10-03T11:59:42.173Z,3504.00
2022-10-03T12:00:42.187Z,3396.00
2022-10-03T12:01:42.575Z,3208.00
2022-10-03T12:02:42.276Z,3216.00
2022-10-03T12:03:42.238Z,3552.00
2022-10-03T12:04:42.165Z,3580.00
2022-10-03T12:05:42.163Z,3404.00
2022-10-03T12:06:42.166Z,3124.00
2022-10-03T12:07:42.170Z,2936.00
2022-10-03T12:08:42.150Z,2904.00
2022-10-03T12:09:42.160Z,3000.00
2022-10-03T12:10:42.158Z,3036.00
2022-10-03T12:11:42.533Z,2952.00
2022-10-03T12:12:42.168Z,2756.00
2022-10-03T12:13:43.045Z,2948.00
2022-10-03T12:14:44.554Z,3104.00
2022-10-03T12:15:43.055Z,3340.00
2022-10-03T12:16:42.172Z,3396.00
2022-10-03T12:17:42.143Z,3352.00
2022-10-03T12:18:42.157Z,3528.00
2022-10-03T12:19:42.137Z,3584.00
2022-10-03T12:20:42.138Z,3508.00
2022-10-03T12:21:42.348Z,4136.00
2022-10-03T12:22:42.147Z,2948.00
2022-10-03T12:23:42.123Z,2852.00
2022-10-03T12:24:42.141Z,2644.00
2022-10-03T12:25:42.166Z,2564.00
2022-10-03T12:26:42.129Z,2696.00
2022-10-03T12:27:42.115Z,2400.00
2022-10-03T12:28:42.129Z,3052.00
2022-10-03T12:29:42.128Z,4100.00
2022-10-03T12:30:44.059Z,4224.00
2022-10-03T12:31:42.552Z,3608.00
2022-10-03T12:32:42.109Z,3328.00
2022-10-03T12:33:42.156Z,3028.00
2022-10-03T12:34:43.570Z,2800.00
2022-10-03T12:35:42.107Z,2592.00
2022-10-03T12:36:43.053Z,2508.00
2022-10-03T12:37:42.122Z,2568.00
2022-10-03T12:38:42.104Z,2532.00
2022-10-03T12:39:42.091Z,2708.00
2022-10-03T12:40:42.094Z,2560.00
2022-10-03T12:41:42.394Z,2880.00
2022-10-03T12:42:42.095Z,3460.00
2022-10-03T12:43:42.091Z,3384.00
2022-10-03T12:44:44.060Z,3536.00
2022-10-03T12:45:42.639Z,3040.00
2022-10-03T12:46:43.554Z,2584.00
2022-10-03T12:47:55.203Z,2568.00
2022-10-03T12:48:43.078Z,4120.00
2022-10-03T12:49:42.082Z,3492.00
2022-10-03T12:50:42.083Z,4344.00
2022-10-03T12:51:42.586Z,3112.00
2022-10-03T12:52:42.079Z,3064.00
2022-10-03T12:53:42.072Z,2852.00
2022-10-03T12:54:42.074Z,3644.00
2022-10-03T12:55:42.085Z,2808.00
2022-10-03T12:56:42.557Z,3244.00
2022-10-03T12:57:42.076Z,3280.00
2022-10-03T12:58:42.077Z,2984.00
2022-10-03T12:59:42.077Z,2812.00
2022-10-03T13:00:45.841Z,2688.00
2022-10-03T13:01:43.170Z,3648.00
2022-10-03T13:02:42.118Z,2792.00
2022-10-03T13:03:42.063Z,3428.00
2022-10-03T13:04:42.062Z,2440.00
2022-10-03T13:05:43.062Z,2580.00
2022-10-03T13:07:02.969Z,3000.00
2022-10-03T13:07:42.068Z,3028.00
2022-10-03T13:08:42.059Z,2972.00
2022-10-03T13:09:43.596Z,2996.00
2022-10-03T13:10:42.071Z,3936.00
2022-10-03T13:11:42.484Z,3764.00
2022-10-03T13:12:42.066Z,3768.00
2022-10-03T13:13:42.084Z,3588.00
2022-10-03T13:14:42.043Z,3940.00
2022-10-03T13:15:42.099Z,4380.00
2022-10-03T13:16:42.049Z,3668.00
2022-10-03T13:17:42.041Z,3384.00
2022-10-03T13:18:42.061Z,3100.00
2022-10-03T13:19:42.049Z,3520.00
2022-10-03T13:20:42.036Z,3688.00
2022-10-03T13:21:46.056Z,3628.00
2022-10-03T13:22:42.043Z,2668.00
2022-10-03T13:23:42.039Z,2216.00
2022-10-03T13:24:42.046Z,2336.00
2022-10-03T13:25:42.148Z,3676.00
2022-10-03T13:26:42.065Z,3216.00
2022-10-03T13:27:42.029Z,2732.00
2022-10-03T13:28:42.077Z,2280.00
2022-10-03T13:29:42.571Z,2328.00
2022-10-03T13:30:44.626Z,2188.00
2022-10-03T13:31:42.475Z,2360.00
2022-10-03T13:32:42.022Z,3788.00
2022-10-03T13:33:42.019Z,2852.00
2022-10-03T13:34:42.023Z,2596.00
2022-10-03T13:35:42.021Z,2580.00
2022-10-03T13:36:42.029Z,2480.00
2022-10-03T13:37:42.030Z,2644.00
2022-10-03T13:38:42.022Z,2612.00
2022-10-03T13:39:42.016Z,2444.00
2022-10-03T13:40:42.010Z,2372.00
2022-10-03T13:41:42.441Z,2320.00
2022-10-03T13:42:42.004Z,2692.00